Time;durP1;ratioP1;P1;durP2;ratioP2;P2;SDS_P1;SDS_P2;PMS_P1;PMS_P2;Temp;Humidity;BMP_temperature;BMP_pressure;BME280_temperature;BME280_humidity;BME280_pressure;Samples;Min_cycle;Max_cycle;Signal;HPM_P1;HPM_P2
2021/12/18 00:00:48;;;;;;;4.07;1.33;;;19.40;55.10;;;;;;5010905;28;20042;-89
2021/12/18 00:03:14;;;;;;;3.45;1.10;;;19.40;55.10;;;;;;4995115;28;20430;-88
2021/12/18 00:05:39;;;;;;;3.50;1.15;;;19.40;55.10;;;;;;5011346;28;20038;-88
2021/12/18 00:08:05;;;;;;;4.30;1.38;;;19.40;55.20;;;;;;4994454;28;20049;-89
2021/12/18 00:10:31;;;;;;;2.65;1.00;;;19.40;55.20;;;;;;4994816;28;20069;-88
2021/12/18 00:12:56;;;;;;;3.65;1.10;;;20.60;55.70;;;;;;5027812;28;20034;-89
2021/12/18 00:15:23;;;;;;;3.63;1.10;;;19.40;55.20;;;;;;5020909;28;20083;-88
2021/12/18 00:17:48;;;;;;;4.03;1.42;;;19.40;55.10;;;;;;5047614;28;20076;-88
2021/12/18 00:20:15;;;;;;;2.92;0.90;;;19.40;55.10;;;;;;5014508;28;20457;-88
2021/12/18 00:22:41;;;;;;;3.55;0.80;;;19.30;55.10;;;;;;5013836;28;20332;-88
2021/12/18 00:25:07;;;;;;;3.78;0.95;;;19.30;55.10;;;;;;5014493;28;20057;-88
2021/12/18 00:27:33;;;;;;;4.13;0.98;;;19.30;55.10;;;;;;5014133;28;20056;-88
2021/12/18 00:29:58;;;;;;;4.00;0.95;;;19.40;55.20;;;;;;5013337;28;20044;-88
2021/12/18 00:32:24;;;;;;;2.83;0.63;;;19.40;55.20;;;;;;5014195;28;20132;-89
2021/12/18 00:34:49;;;;;;;1.52;0.70;;;19.30;55.10;;;;;;5014144;28;20041;-88
2021/12/18 00:37:15;;;;;;;3.35;0.70;;;19.30;55.10;;;;;;5013825;28;20366;-88
2021/12/18 00:39:50;;;;;;;2.90;0.80;;;19.30;55.10;;;;;;4994712;28;20160;-89
2021/12/18 00:44:50;;;;;;;2.72;0.75;;;19.30;55.10;;;;;;5029802;28;20050;-88
2021/12/18 00:47:15;;;;;;;2.85;0.70;;;19.30;55.10;;;;;;5008775;28;20112;-89
2021/12/18 00:49:41;;;;;;;2.55;0.70;;;19.30;55.10;;;;;;5000601;28;20046;-88
2021/12/18 00:52:06;;;;;;;3.13;0.95;;;19.30;55.10;;;;;;5081360;23;20087;-89
2021/12/18 00:54:34;;;;;;;2.83;0.95;;;19.30;55.10;;;;;;4974873;28;20620;-88
2021/12/18 00:57:00;;;;;;;2.72;0.70;;;19.30;55.10;;;;;;4974619;28;20096;-88
2021/12/18 00:59:26;;;;;;;2.35;0.90;;;19.20;55.10;;;;;;4975075;28;20046;-89
2021/12/18 01:01:51;;;;;;;2.97;0.90;;;19.30;55.20;;;;;;4975032;28;20046;-88
2021/12/18 01:04:17;;;;;;;3.28;0.98;;;19.20;55.10;;;;;;4974227;28;20050;-88
2021/12/18 01:06:59;;;;;;;2.35;0.80;;;19.20;55.10;;;;;;4816151;28;10001117;-88
2021/12/18 01:09:42;;;;;;;2.90;0.57;;;19.20;55.10;;;;;;3584128;28;10001238;-89
2021/12/18 01:12:09;;;;;;;2.30;0.60;;;19.20;55.10;;;;;;4974392;28;20061;-89
2021/12/18 01:14:49;;;;;;;2.63;0.77;;;19.20;55.10;;;;;;4989009;23;20057;-89
2021/12/18 01:22:47;;;;;;;2.58;0.70;;;19.20;55.10;;;;;;5010345;28;20041;-89
2021/12/18 01:25:13;;;;;;;1.67;0.50;;;19.20;55.10;;;;;;5009381;28;20484;-88
2021/12/18 01:27:42;;;;;;;2.50;0.70;;;19.20;55.10;;;;;;5010223;28;20057;-88
2021/12/18 01:30:09;;;;;;;4.07;0.80;;;19.90;55.50;;;;;;5010233;28;20065;-88
2021/12/18 01:32:34;;;;;;;1.95;0.60;;;19.20;55.10;;;;;;5009653;28;20485;-90
2021/12/18 01:35:01;;;;;;;1.98;0.60;;;19.10;55.10;;;;;;4982965;28;20050;-89
2021/12/18 01:37:27;;;;;;;3.33;0.88;;;20.50;55.90;;;;;;4965011;28;20053;-89
2021/12/18 01:39:53;;;;;;;1.83;0.80;;;19.10;55.10;;;;;;4974546;28;20046;-89
2021/12/18 01:45:01;;;;;;;1.88;0.50;;;20.60;55.90;;;;;;4974695;28;20100;-90
2021/12/18 01:52:55;;;;;;;2.15;0.63;;;19.10;55.10;;;;;;5009859;28;20045;-90
2021/12/18 01:55:32;;;;;;;1.90;0.40;;;19.10;55.10;;;;;;4979390;28;20145;-90
2021/12/18 01:57:57;;;;;;;3.28;0.88;;;19.10;55.10;;;;;;4974260;28;20402;-91
2021/12/18 02:00:43;;;;;;;2.65;0.60;;;20.00;55.60;;;;;;4974195;28;20042;-89
2021/12/18 02:03:09;;;;;;;2.33;0.60;;;19.10;55.10;;;;;;4974016;28;20054;-89
2021/12/18 02:05:35;;;;;;;2.22;0.70;;;19.10;55.10;;;;;;4974442;28;20100;-90
2021/12/18 02:08:00;;;;;;;2.22;0.68;;;19.10;55.20;;;;;;4995749;28;20057;-90
2021/12/18 02:10:29;;;;;;;2.35;1.00;;;18.90;55.00;;;;;;5010170;28;20133;-90
2021/12/18 02:13:06;;;;;;;2.60;0.77;;;19.10;55.20;;;;;;5010245;28;20044;-90
2021/12/18 02:21:06;;;;;;;2.53;0.70;;;20.60;56.00;;;;;;5009542;28;20049;-90
2021/12/18 02:23:33;;;;;;;1.40;0.40;;;20.30;55.80;;;;;;5010007;28;20095;-90
2021/12/18 02:25:58;;;;;;;2.25;0.50;;;20.40;55.90;;;;;;5010045;28;20057;-90
2021/12/18 02:28:26;;;;;;;2.58;0.40;;;19.00;55.10;;;;;;5009201;28;20488;-90
2021/12/18 02:30:53;;;;;;;1.55;0.30;;;19.00;55.10;;;;;;5009777;28;20046;-89
2021/12/18 02:33:19;;;;;;;1.50;0.50;;;19.00;55.20;;;;;;5009709;28;20054;-89
2021/12/18 02:35:50;;;;;;;1.77;0.50;;;19.00;55.10;;;;;;5008827;28;20506;-90
2021/12/18 02:38:28;;;;;;;2.33;0.70;;;19.00;55.20;;;;;;5009594;28;20054;-90
2021/12/18 02:43:44;;;;;;;1.58;0.40;;;19.00;55.10;;;;;;5009057;28;20054;-90
2021/12/18 02:46:10;;;;;;;1.75;0.35;;;19.00;55.20;;;;;;5009250;28;20054;-90
2021/12/18 02:48:36;;;;;;;1.70;0.43;;;19.00;55.10;;;;;;4971388;28;20434;-90
2021/12/18 02:51:03;;;;;;;1.40;0.38;;;20.00;55.70;;;;;;4951557;29;20054;-90
2021/12/18 02:53:28;;;;;;;1.80;0.40;;;18.90;55.10;;;;;;4951335;29;20387;-90
2021/12/18 02:55:56;;;;;;;2.58;0.50;;;18.90;55.20;;;;;;4950063;29;20079;-90
2021/12/18 02:58:21;;;;;;;1.88;0.50;;;18.90;55.20;;;;;;4953145;28;20503;-91
2021/12/18 03:00:47;;;;;;;1.25;0.45;;;17.10;54.30;;;;;;4950694;29;20043;-91
2021/12/18 03:03:32;;;;;;;2.08;0.70;;;18.90;55.20;;;;;;4999929;28;20058;-90
2021/12/18 03:24:55;;;;;;;1.90;0.40;;;18.90;55.20;;;;;;5012232;28;20061;-90
2021/12/18 03:27:21;;;;;;;1.33;0.52;;;19.60;55.50;;;;;;5005654;28;20065;-90
2021/12/18 03:29:47;;;;;;;1.60;0.50;;;18.90;55.20;;;;;;5012991;28;20161;-90
2021/12/18 03:32:12;;;;;;;1.00;0.30;;;18.80;55.10;;;;;;5012456;28;20136;-90
2021/12/18 03:34:38;;;;;;;1.63;0.40;;;19.40;55.40;;;;;;5012811;28;20080;-90
2021/12/18 03:37:04;;;;;;;0.80;0.30;;;20.40;56.00;;;;;;5012734;28;20049;-89
2021/12/18 03:39:29;;;;;;;1.50;0.40;;;18.90;55.20;;;;;;5012598;28;20577;-90
2021/12/18 03:41:55;;;;;;;1.42;0.50;;;18.80;55.10;;;;;;5012510;28;20113;-90
2021/12/18 03:44:21;;;;;;;1.75;0.35;;;18.80;55.10;;;;;;5010917;28;20042;-88
2021/12/18 03:46:46;;;;;;;1.17;0.30;;;18.80;55.10;;;;;;5011013;28;20042;-89
2021/12/18 03:49:12;;;;;;;1.35;0.50;;;18.80;55.10;;;;;;4996457;28;20100;-88
2021/12/18 03:51:38;;;;;;;1.00;0.30;;;19.00;55.20;;;;;;4996229;28;20041;-89
2021/12/18 03:54:03;;;;;;;1.02;0.28;;;19.60;55.50;;;;;;4996037;28;20053;-88
2021/12/18 03:56:29;;;;;;;1.40;0.35;;;18.80;55.80;;;;;;4996443;28;20485;-89
2021/12/18 03:58:55;;;;;;;1.27;0.30;;;18.90;55.20;;;;;;5012603;28;20053;-89
2021/12/18 04:01:20;;;;;;;0.85;0.30;;;18.80;55.20;;;;;;4995628;28;20046;-88
2021/12/18 04:03:46;;;;;;;1.25;0.40;;;18.80;55.10;;;;;;4996106;28;20050;-89
2021/12/18 04:06:11;;;;;;;1.27;0.30;;;18.80;55.10;;;;;;4995366;28;20065;-89
2021/12/18 04:08:37;;;;;;;0.68;0.30;;;18.90;55.20;;;;;;4995769;28;20048;-89
2021/12/18 04:11:03;;;;;;;1.35;0.40;;;18.80;55.10;;;;;;4995644;28;20091;-89
2021/12/18 04:13:30;;;;;;;1.67;0.40;;;18.80;55.10;;;;;;4995236;28;20053;-89
2021/12/18 04:15:55;;;;;;;1.33;0.30;;;18.70;55.00;;;;;;4995442;28;20104;-89
2021/12/18 04:18:21;;;;;;;1.10;0.30;;;18.80;55.10;;;;;;4995103;28;20073;-88
2021/12/18 04:20:46;;;;;;;1.35;0.30;;;18.80;55.10;;;;;;4995569;28;20041;-89
2021/12/18 04:23:12;;;;;;;0.68;0.20;;;18.70;55.00;;;;;;4995606;28;20547;-89
2021/12/18 04:25:38;;;;;;;2.22;0.45;;;18.80;55.20;;;;;;4995882;28;20132;-90
2021/12/18 04:28:19;;;;;;;0.88;0.30;;;17.20;54.50;;;;;;4994945;28;20034;-89
2021/12/18 04:30:44;;;;;;;0.93;0.20;;;17.40;54.50;;;;;;4996220;28;20521;-90
2021/12/18 04:33:10;;;;;;;0.85;0.20;;;18.50;55.10;;;;;;4995591;28;20053;-89
2021/12/18 04:35:44;;;;;;;0.88;0.25;;;17.20;54.40;;;;;;4994820;28;20100;-88
2021/12/18 04:38:10;;;;;;;1.52;0.38;;;18.90;55.50;;;;;;4996122;28;20057;-88
2021/12/18 04:40:36;;;;;;;0.70;0.30;;;18.70;55.10;;;;;;4995696;28;20057;-89
2021/12/18 04:43:07;;;;;;;1.23;0.30;;;19.70;55.70;;;;;;4994695;28;20501;-89
2021/12/18 04:45:33;;;;;;;1.20;0.30;;;18.60;55.10;;;;;;4995694;28;20106;-90
2021/12/18 04:47:59;;;;;;;0.93;0.40;;;18.90;55.30;;;;;;4979170;28;20034;-90
2021/12/18 04:50:25;;;;;;;0.73;0.17;;;18.70;55.10;;;;;;4994780;28;20078;-91
2021/12/18 04:52:50;;;;;;;1.02;0.30;;;18.70;55.00;;;;;;4979419;28;20537;-88
2021/12/18 04:55:16;;;;;;;1.27;0.30;;;18.70;55.00;;;;;;4993776;28;20085;-88
2021/12/18 04:57:42;;;;;;;1.30;0.30;;;19.10;55.30;;;;;;4994857;28;20058;-88
2021/12/18 05:00:08;;;;;;;0.75;0.20;;;19.30;55.40;;;;;;4994728;28;20049;-88
2021/12/18 05:02:38;;;;;;;1.27;0.32;;;18.70;55.10;;;;;;4993610;28;20060;-88
2021/12/18 05:05:04;;;;;;;0.98;0.30;;;18.70;55.10;;;;;;4994418;28;20072;-88
2021/12/18 05:07:30;;;;;;;0.80;0.20;;;18.70;55.00;;;;;;4978181;28;20577;-88
2021/12/18 05:09:56;;;;;;;0.60;0.20;;;18.60;55.00;;;;;;4993794;28;20074;-88
2021/12/18 05:12:21;;;;;;;0.82;0.20;;;18.60;55.00;;;;;;4994461;28;20547;-88
2021/12/18 05:14:47;;;;;;;0.50;0.20;;;18.70;55.10;;;;;;4993965;28;20050;-88
2021/12/18 05:17:13;;;;;;;0.40;0.17;;;18.60;55.00;;;;;;4993712;28;20069;-88
2021/12/18 05:19:38;;;;;;;0.60;0.20;;;18.70;55.00;;;;;;5010279;28;20601;-89
2021/12/18 05:22:04;;;;;;;0.70;0.30;;;18.60;55.00;;;;;;4994099;28;20401;-88
2021/12/18 05:24:30;;;;;;;1.02;0.20;;;18.60;55.00;;;;;;4993232;28;20096;-87
2021/12/18 05:26:55;;;;;;;0.55;0.10;;;18.60;55.00;;;;;;4993799;28;20210;-90
2021/12/18 05:29:21;;;;;;;0.95;0.20;;;18.60;55.00;;;;;;4992787;28;20045;-87
2021/12/18 05:31:46;;;;;;;0.28;0.10;;;19.00;55.20;;;;;;4995217;28;20141;-88
2021/12/18 05:34:20;;;;;;;0.57;0.20;;;18.70;55.10;;;;;;4993122;28;20050;-87
2021/12/18 05:39:17;;;;;;;0.68;0.28;;;18.60;55.00;;;;;;4978137;28;20444;-89
2021/12/18 05:41:43;;;;;;;0.35;0.10;;;18.70;55.10;;;;;;4933059;28;20499;-88
2021/12/18 05:44:08;;;;;;;0.30;0.13;;;18.70;55.10;;;;;;4974343;28;20579;-88
2021/12/18 05:46:34;;;;;;;0.85;0.20;;;18.70;55.10;;;;;;4973529;28;20154;-88
2021/12/18 05:49:00;;;;;;;0.45;0.10;;;19.60;55.70;;;;;;4973448;28;20053;-88
2021/12/18 05:51:25;;;;;;;0.55;0.20;;;18.70;55.20;;;;;;4974532;28;20057;-88
2021/12/18 05:53:51;;;;;;;0.85;0.20;;;18.70;55.20;;;;;;4968170;28;20064;-88
2021/12/18 05:56:16;;;;;;;0.63;0.20;;;18.70;55.20;;;;;;5009551;28;20405;-88
2021/12/18 05:58:44;;;;;;;0.57;0.20;;;18.70;55.20;;;;;;5009473;28;20050;-88
2021/12/18 06:01:10;;;;;;;0.43;0.17;;;19.90;55.90;;;;;;5010063;28;20399;-89
2021/12/18 06:03:36;;;;;;;0.50;0.20;;;18.70;55.20;;;;;;5009754;28;20042;-88
2021/12/18 06:06:02;;;;;;;0.20;0.10;;;18.70;55.20;;;;;;5009555;28;20057;-88
2021/12/18 06:08:28;;;;;;;0.40;0.10;;;18.70;55.20;;;;;;5010034;28;20516;-89
2021/12/18 06:10:55;;;;;;;0.60;0.20;;;18.80;55.40;;;;;;5012493;28;20053;-89
2021/12/18 06:13:20;;;;;;;0.60;0.10;;;19.40;55.60;;;;;;5013666;28;20060;-88
2021/12/18 06:15:46;;;;;;;0.50;0.30;;;18.70;55.20;;;;;;5011986;28;20057;-89
2021/12/18 06:18:11;;;;;;;0.60;0.20;;;18.80;55.30;;;;;;5009464;28;20191;-89
2021/12/18 06:20:37;;;;;;;0.30;0.10;;;18.80;55.30;;;;;;5008069;28;20053;-89
2021/12/18 06:23:03;;;;;;;0.22;0.10;;;18.80;55.30;;;;;;5009800;28;20049;-88
2021/12/18 06:25:28;;;;;;;0.28;0.10;;;18.80;55.20;;;;;;5009876;28;20375;-89
2021/12/18 06:27:54;;;;;;;0.98;0.30;;;18.80;55.20;;;;;;5008632;28;20085;-89
2021/12/18 06:30:19;;;;;;;0.30;0.10;;;18.80;55.30;;;;;;5011202;28;20050;-89
2021/12/18 06:32:45;;;;;;;0.57;0.17;;;18.80;55.20;;;;;;5008877;28;20057;-88
2021/12/18 06:35:11;;;;;;;0.60;0.10;;;18.80;55.20;;;;;;5008493;28;20525;-88
2021/12/18 06:37:36;;;;;;;0.22;0.10;;;18.80;55.20;;;;;;5008737;28;20165;-88
2021/12/18 06:40:03;;;;;;;0.28;0.10;;;18.80;55.20;;;;;;4959822;28;20062;-88
2021/12/18 06:42:28;;;;;;;0.52;0.20;;;18.80;55.20;;;;;;4961577;28;20061;-88
2021/12/18 06:44:54;;;;;;;0.30;0.10;;;18.80;55.30;;;;;;5009119;28;20061;-88
2021/12/18 06:47:19;;;;;;;0.60;0.10;;;18.80;55.20;;;;;;5009176;28;20042;-88
2021/12/18 06:49:45;;;;;;;0.50;0.10;;;18.80;55.20;;;;;;5024049;28;20050;-88
2021/12/18 06:52:10;;;;;;;0.65;0.17;;;18.80;55.20;;;;;;5009279;28;20177;-89
2021/12/18 06:54:36;;;;;;;0.63;0.10;;;18.80;55.30;;;;;;5009349;28;20046;-89
2021/12/18 06:57:02;;;;;;;0.38;0.10;;;18.80;55.20;;;;;;5008754;28;20045;-88
2021/12/18 06:59:28;;;;;;;0.40;0.10;;;18.90;55.30;;;;;;4993177;28;20049;-89
2021/12/18 07:01:53;;;;;;;0.45;0.10;;;18.90;55.30;;;;;;4989526;28;20050;-88
2021/12/18 07:04:20;;;;;;;0.30;0.13;;;18.90;55.30;;;;;;5008856;28;20096;-89
2021/12/18 07:06:45;;;;;;;0.55;0.10;;;18.90;55.30;;;;;;5007999;28;20145;-89
2021/12/18 07:09:11;;;;;;;0.38;0.10;;;18.90;55.30;;;;;;5008727;28;20216;-88
2021/12/18 07:11:36;;;;;;;0.20;0.10;;;18.90;56.00;;;;;;5009035;28;20053;-88
2021/12/18 07:14:02;;;;;;;0.08;0.00;;;18.90;55.20;;;;;;5013600;28;20057;-87
2021/12/18 07:16:28;;;;;;;0.25;0.10;;;18.90;55.20;;;;;;5008950;28;20049;-87
2021/12/18 07:18:53;;;;;;;0.63;0.20;;;18.90;55.20;;;;;;5009092;28;20052;-92
2021/12/18 07:21:19;;;;;;;0.20;0.00;;;18.90;55.20;;;;;;5010866;28;20107;-90
2021/12/18 07:23:44;;;;;;;0.40;0.10;;;18.90;55.20;;;;;;5010389;28;20425;-90
2021/12/18 07:26:12;;;;;;;0.38;0.17;;;18.90;55.20;;;;;;4994355;28;20053;-91
2021/12/18 07:28:38;;;;;;;0.20;0.05;;;18.90;55.20;;;;;;5010045;28;20395;-89
2021/12/18 07:31:03;;;;;;;0.30;0.10;;;20.30;56.00;;;;;;5009098;28;20141;-90
2021/12/18 07:33:29;;;;;;;0.20;0.10;;;18.90;55.20;;;;;;5009988;28;20509;-91
2021/12/18 07:35:54;;;;;;;0.17;0.10;;;18.90;55.20;;;;;;5047042;22;20066;-90
2021/12/18 07:38:20;;;;;;;0.22;0.00;;;19.80;55.60;;;;;;5013966;28;20068;-92
2021/12/18 07:40:46;;;;;;;0.25;0.10;;;18.80;55.10;;;;;;5024278;28;20064;-81
2021/12/18 07:43:12;;;;;;;0.40;0.10;;;19.00;55.20;;;;;;4994290;28;20041;-88
2021/12/18 07:45:37;;;;;;;0.30;0.10;;;19.00;55.20;;;;;;5003875;28;20409;-90
2021/12/18 07:48:03;;;;;;;0.30;0.10;;;19.00;55.20;;;;;;4973036;28;20069;-90
2021/12/18 07:50:29;;;;;;;0.30;0.03;;;19.00;55.30;;;;;;5003009;28;20054;-91
2021/12/18 07:52:55;;;;;;;0.05;0.00;;;19.00;55.20;;;;;;5010789;28;20046;-90
2021/12/18 07:55:20;;;;;;;0.43;0.10;;;19.00;55.20;;;;;;5014701;28;20042;-92
2021/12/18 07:57:46;;;;;;;0.20;0.10;;;19.00;55.20;;;;;;5013556;28;20050;-89
2021/12/18 08:00:13;;;;;;;0.20;0.00;;;19.00;55.20;;;;;;5012486;28;20128;-90
2021/12/18 08:02:39;;;;;;;0.52;0.17;;;19.00;55.20;;;;;;5028303;28;20041;-89
2021/12/18 08:05:04;;;;;;;0.22;0.10;;;19.00;55.30;;;;;;5043721;28;20038;-88
2021/12/18 08:07:30;;;;;;;0.52;0.00;;;19.00;55.20;;;;;;5010996;28;20050;-89
2021/12/18 08:09:56;;;;;;;0.55;0.20;;;19.00;55.20;;;;;;5039780;28;20120;-89
2021/12/18 08:12:21;;;;;;;0.38;0.10;;;19.00;55.20;;;;;;5044188;28;20076;-88
2021/12/18 08:14:47;;;;;;;0.22;0.03;;;18.50;54.90;;;;;;5011331;28;20572;-89
2021/12/18 08:17:12;;;;;;;0.40;0.17;;;20.00;55.70;;;;;;5047883;28;20404;-89
2021/12/18 08:19:38;;;;;;;0.13;0.00;;;19.00;55.20;;;;;;5047069;28;20045;-88
2021/12/18 08:22:03;;;;;;;0.25;0.10;;;19.00;55.20;;;;;;5014880;28;20128;-88
2021/12/18 08:24:29;;;;;;;1.08;0.10;;;19.00;55.20;;;;;;5014619;28;20053;-90
2021/12/18 08:26:54;;;;;;;0.20;0.10;;;18.90;55.20;;;;;;5037106;28;20131;-88
2021/12/18 08:29:20;;;;;;;0.20;0.10;;;19.90;55.70;;;;;;5064851;28;20041;-89
2021/12/18 08:31:46;;;;;;;0.43;0.10;;;18.90;55.20;;;;;;5060509;28;20481;-89
2021/12/18 08:34:12;;;;;;;0.20;0.00;;;19.00;55.20;;;;;;5014218;28;20076;-89
2021/12/18 08:36:38;;;;;;;0.20;0.10;;;18.90;55.20;;;;;;4807126;28;5001896;-89
2021/12/18 08:39:03;;;;;;;0.10;0.00;;;18.90;55.20;;;;;;4993048;28;20304;-88
2021/12/18 08:41:29;;;;;;;0.43;0.08;;;18.90;55.10;;;;;;5026930;28;20497;-89
2021/12/18 08:43:55;;;;;;;0.10;0.00;;;18.90;55.20;;;;;;5027052;28;20048;-90
2021/12/18 08:46:20;;;;;;;0.40;0.10;;;18.90;55.20;;;;;;4994669;28;20046;-89
2021/12/18 08:48:46;;;;;;;0.13;0.00;;;18.90;55.20;;;;;;4993923;28;20046;-88
2021/12/18 08:51:11;;;;;;;0.22;0.08;;;18.90;55.20;;;;;;4994587;28;20056;-88
2021/12/18 08:53:37;;;;;;;0.20;0.00;;;18.90;55.20;;;;;;4994437;28;20493;-88
2021/12/18 08:56:03;;;;;;;0.40;0.10;;;18.90;55.20;;;;;;4995877;28;20084;-88
2021/12/18 08:58:28;;;;;;;0.60;0.10;;;18.90;55.20;;;;;;5017893;28;20072;-88
2021/12/18 09:00:54;;;;;;;0.10;0.10;;;18.90;55.20;;;;;;5013500;28;20409;-89
2021/12/18 09:03:19;;;;;;;0.22;0.10;;;18.90;55.20;;;;;;5012715;28;20049;-88
2021/12/18 09:05:45;;;;;;;0.65;0.10;;;18.90;55.20;;;;;;5013499;28;20469;-89
2021/12/18 09:08:10;;;;;;;0.50;0.10;;;18.90;55.20;;;;;;5052752;28;20049;-89
2021/12/18 09:10:36;;;;;;;0.88;0.10;;;18.90;55.20;;;;;;5013886;28;20136;-88
2021/12/18 09:13:02;;;;;;;0.30;0.08;;;18.90;55.80;;;;;;5013424;28;20049;-89
2021/12/18 09:15:27;;;;;;;0.17;0.10;;;18.90;55.20;;;;;;5013264;28;20129;-88
2021/12/18 09:17:53;;;;;;;0.25;0.10;;;18.90;55.20;;;;;;5028573;28;20049;-87
2021/12/18 09:20:18;;;;;;;0.90;0.10;;;18.80;55.10;;;;;;5019608;28;20076;-88
2021/12/18 09:22:44;;;;;;;0.47;0.10;;;18.90;55.20;;;;;;5018927;28;20099;-88
2021/12/18 09:25:10;;;;;;;0.15;0.10;;;19.00;55.20;;;;;;5001688;28;20051;-88
2021/12/18 09:27:35;;;;;;;1.45;0.10;;;18.90;55.10;;;;;;5021711;28;20050;-88
2021/12/18 09:30:03;;;;;;;0.80;0.10;;;18.90;55.10;;;;;;5004085;28;20045;-88
2021/12/18 09:32:29;;;;;;;0.20;0.10;;;18.90;55.20;;;;;;5001421;28;20064;-88
2021/12/18 09:34:55;;;;;;;1.23;0.10;;;18.90;55.10;;;;;;5000113;28;20504;-88
2021/12/18 09:37:21;;;;;;;0.85;0.20;;;18.90;55.10;;;;;;5024293;28;20042;-88
2021/12/18 09:39:46;;;;;;;0.17;0.00;;;18.90;55.10;;;;;;5000580;28;20080;-89
2021/12/18 09:42:12;;;;;;;0.10;0.08;;;18.90;55.10;;;;;;5015868;28;20041;-88
2021/12/18 09:44:37;;;;;;;0.20;0.10;;;18.90;55.10;;;;;;5024245;28;20088;-88
2021/12/18 09:47:03;;;;;;;0.20;0.08;;;18.90;55.10;;;;;;4988561;28;20643;-90
2021/12/18 09:49:29;;;;;;;0.20;0.10;;;18.90;55.10;;;;;;4984593;28;20045;-90
2021/12/18 09:51:55;;;;;;;0.90;0.10;;;18.90;55.10;;;;;;4999893;28;20123;-88
2021/12/18 09:54:24;;;;;;;0.40;0.20;;;18.90;55.10;;;;;;4986944;28;20734;-88
2021/12/18 09:56:53;;;;;;;0.93;0.10;;;18.90;55.10;;;;;;4998421;28;20087;-90
2021/12/18 09:59:20;;;;;;;0.63;0.17;;;18.90;55.20;;;;;;5002160;28;20081;-87
2021/12/18 10:01:45;;;;;;;0.65;0.10;;;19.00;55.20;;;;;;5000892;28;20081;-88
2021/12/18 10:04:32;;;;;;;0.22;0.05;;;19.00;55.20;;;;;;5023999;28;20103;-90
2021/12/18 10:06:59;;;;;;;1.20;0.10;;;18.90;55.30;;;;;;5038975;28;20046;-87
2021/12/18 10:09:24;;;;;;;0.13;0.10;;;19.60;55.80;;;;;;5000844;28;20408;-87
2021/12/18 10:11:54;;;;;;;0.28;0.10;;;19.00;55.30;;;;;;5003225;28;20055;-87
2021/12/18 10:14:36;;;;;;;0.52;0.10;;;19.00;55.50;;;;;;5026718;28;20076;-88
2021/12/18 10:17:01;;;;;;;0.45;0.10;;;19.00;55.50;;;;;;4995773;28;20037;-85
2021/12/18 10:19:32;;;;;;;1.55;0.20;;;19.00;55.60;;;;;;5014747;28;20064;-85
2021/12/18 10:22:03;;;;;;;0.70;0.10;;;19.00;55.60;;;;;;5018105;28;20045;-86
2021/12/18 10:24:29;;;;;;;1.10;0.10;;;19.00;55.50;;;;;;5013950;28;20065;-85
2021/12/18 10:26:54;;;;;;;0.80;0.10;;;19.10;55.50;;;;;;5025673;28;20076;-87
2021/12/18 10:29:32;;;;;;;0.60;0.10;;;19.10;55.50;;;;;;5019777;28;20045;-85
2021/12/18 10:32:10;;;;;;;0.10;0.00;;;19.10;55.50;;;;;;5025952;28;20041;-86
2021/12/18 10:34:37;;;;;;;0.40;0.10;;;19.10;55.40;;;;;;5018781;28;20075;-88
2021/12/18 10:37:10;;;;;;;0.47;0.10;;;19.60;55.60;;;;;;5023139;28;20049;-87
2021/12/18 10:39:37;;;;;;;0.95;0.20;;;19.10;55.30;;;;;;5011582;28;20080;-87
2021/12/18 10:42:15;;;;;;;0.55;0.20;;;19.20;55.30;;;;;;5011339;28;20045;-87
2021/12/18 10:45:10;;;;;;;0.30;0.10;;;19.10;55.30;;;;;;5009841;28;20096;-86
2021/12/18 10:47:55;;;;;;;2.50;0.30;;;19.20;55.30;;;;;;5000606;28;20063;-85
2021/12/18 10:50:35;;;;;;;0.60;0.30;;;19.20;55.30;;;;;;5017748;28;20055;-84
2021/12/18 10:53:06;;;;;;;2.22;0.20;;;19.10;55.30;;;;;;5027751;28;20051;-86
2021/12/18 10:55:48;;;;;;;1.80;0.28;;;19.20;55.70;;;;;;5020761;28;20863;-85
2021/12/18 10:58:31;;;;;;;4.97;0.38;;;19.20;55.60;;;;;;5026875;28;20051;-87
2021/12/18 11:01:15;;;;;;;1.58;0.20;;;19.10;55.50;;;;;;5019953;28;20057;-87
2021/12/18 11:03:59;;;;;;;2.97;0.30;;;19.20;55.50;;;;;;5025275;28;20049;-86
2021/12/18 11:06:26;;;;;;;1.60;0.30;;;19.80;55.80;;;;;;5017404;28;20046;-85
2021/12/18 11:09:11;;;;;;;0.55;0.20;;;19.20;55.50;;;;;;5012148;28;20098;-90
2021/12/18 11:14:15;;;;;;;1.08;0.30;;;19.20;55.50;;;;;;5037114;28;20053;-88
2021/12/18 11:16:45;;;;;;;1.40;0.20;;;19.20;55.50;;;;;;5016381;28;20046;-90
2021/12/18 11:19:13;;;;;;;0.60;0.20;;;19.20;55.40;;;;;;5013351;28;20060;-87
2021/12/18 11:21:43;;;;;;;3.30;0.20;;;19.20;55.40;;;;;;5013309;28;20053;-91
2021/12/18 11:24:09;;;;;;;0.73;0.20;;;19.20;55.40;;;;;;5016566;28;20516;-91
2021/12/18 11:26:59;;;;;;;0.68;0.30;;;19.20;55.30;;;;;;5026175;28;20053;-91
2021/12/18 11:29:39;;;;;;;2.15;0.40;;;19.20;55.30;;;;;;5008489;28;20054;-90
2021/12/18 11:32:06;;;;;;;1.90;0.20;;;19.20;55.30;;;;;;4997495;28;20223;-90
2021/12/18 11:34:32;;;;;;;1.63;0.30;;;19.10;55.30;;;;;;4995983;28;20049;-90
2021/12/18 11:36:59;;;;;;;0.98;0.20;;;19.20;55.30;;;;;;4957097;28;20058;-90
2021/12/18 11:39:25;;;;;;;0.77;0.17;;;19.10;55.30;;;;;;5029344;28;20057;-90
2021/12/18 11:41:51;;;;;;;0.40;0.15;;;19.10;55.30;;;;;;5000076;28;20058;-90
2021/12/18 11:44:28;;;;;;;1.55;0.25;;;19.10;55.30;;;;;;5015893;28;20080;-90
2021/12/18 11:46:54;;;;;;;0.65;0.30;;;19.10;55.30;;;;;;5016544;28;20110;-91
2021/12/18 11:49:21;;;;;;;1.85;0.30;;;19.10;55.30;;;;;;5018488;28;20485;-90
2021/12/18 11:52:04;;;;;;;0.90;0.50;;;19.10;55.30;;;;;;5015525;28;20045;-90
2021/12/18 11:54:50;;;;;;;1.08;0.30;;;19.10;55.30;;;;;;5016276;28;20042;-91
2021/12/18 11:57:35;;;;;;;0.70;0.20;;;19.10;55.30;;;;;;5048802;28;20088;-90
2021/12/18 12:00:00;;;;;;;0.70;0.17;;;20.10;55.80;;;;;;5013870;28;20050;-90
2021/12/18 12:02:42;;;;;;;1.75;0.10;;;19.00;55.20;;;;;;5016558;28;20053;-89
2021/12/18 12:05:08;;;;;;;1.13;0.10;;;19.00;55.20;;;;;;5016513;28;20138;-90
2021/12/18 12:07:33;;;;;;;0.80;0.10;;;19.00;55.20;;;;;;5017285;28;20081;-90
2021/12/18 12:10:22;;;;;;;0.95;0.17;;;19.00;55.20;;;;;;5016967;28;20068;-90
2021/12/18 12:12:50;;;;;;;0.45;0.13;;;19.00;55.20;;;;;;5049272;28;20136;-91
2021/12/18 12:15:16;;;;;;;0.47;0.20;;;19.00;55.90;;;;;;5048673;28;20037;-91
2021/12/18 12:17:59;;;;;;;1.23;0.20;;;19.20;55.30;;;;;;5016677;28;20079;-91
2021/12/18 12:20:31;;;;;;;0.60;0.10;;;19.00;55.20;;;;;;5049348;28;20064;-92
2021/12/18 12:22:59;;;;;;;1.10;0.15;;;19.00;55.20;;;;;;5049356;28;20056;-94
2021/12/18 12:26:01;;;;;;;0.65;0.20;;;18.90;55.20;;;;;;5017339;28;20052;-93
2021/12/18 12:28:26;;;;;;;1.77;0.20;;;18.90;55.20;;;;;;4990609;28;20110;-90
2021/12/18 12:30:58;;;;;;;0.35;0.10;;;19.00;55.20;;;;;;5012652;28;20049;-91
2021/12/18 12:33:32;;;;;;;0.82;0.20;;;19.00;55.20;;;;;;5024714;28;20045;-94
2021/12/18 12:36:03;;;;;;;1.35;0.20;;;18.90;55.20;;;;;;5051001;28;20099;-92
2021/12/18 12:38:55;;;;;;;0.32;0.00;;;18.90;55.20;;;;;;5018273;28;20057;-94
2021/12/18 12:41:27;;;;;;;0.35;0.10;;;18.90;55.20;;;;;;5009119;28;20140;-92
2021/12/18 12:43:54;;;;;;;0.52;0.13;;;18.90;55.30;;;;;;5016945;28;20444;-91
2021/12/18 12:46:19;;;;;;;0.85;0.15;;;18.90;55.20;;;;;;5006006;28;20501;-92
2021/12/18 12:49:02;;;;;;;0.40;0.10;;;18.90;55.20;;;;;;5018160;28;20041;-91
2021/12/18 12:52:07;;;;;;;1.00;0.10;;;18.90;55.30;;;;;;5023631;28;20054;-87
2021/12/18 12:54:57;;;;;;;0.55;0.10;;;18.90;55.30;;;;;;5031167;28;20370;-90
2021/12/18 12:57:23;;;;;;;0.95;0.10;;;18.90;55.30;;;;;;5014216;28;20604;-86
2021/12/18 12:59:49;;;;;;;0.80;0.17;;;18.90;55.30;;;;;;5014035;28;20057;-86
2021/12/18 13:02:15;;;;;;;2.50;0.52;;;18.90;55.30;;;;;;5007710;28;20397;-87
2021/12/18 13:04:41;;;;;;;2.00;0.40;;;18.90;55.20;;;;;;5012261;28;20485;-84
2021/12/18 13:07:07;;;;;;;2.20;0.40;;;18.90;55.20;;;;;;5011044;28;20710;-79
2021/12/18 13:09:36;;;;;;;2.60;0.50;;;18.90;55.50;;;;;;5011335;28;20053;-84
2021/12/18 13:12:02;;;;;;;4.57;0.40;;;18.90;55.40;;;;;;5045553;28;20049;-84
2021/12/18 13:14:42;;;;;;;3.03;0.40;;;18.90;55.50;;;;;;5013399;28;20508;-83
2021/12/18 13:17:20;;;;;;;4.40;0.85;;;18.90;55.50;;;;;;5045995;28;20096;-85
2021/12/18 13:19:55;;;;;;;1.60;0.40;;;18.90;55.50;;;;;;5045989;28;20724;-85
2021/12/18 13:22:27;;;;;;;2.55;0.40;;;18.90;55.60;;;;;;5012298;28;20056;-84
2021/12/18 13:25:07;;;;;;;1.58;0.40;;;19.00;55.60;;;;;;5012774;28;20102;-85
2021/12/18 13:27:33;;;;;;;2.90;0.68;;;19.00;55.70;;;;;;5007902;28;20053;-86
2021/12/18 13:30:17;;;;;;;2.35;0.40;;;19.00;56.00;;;;;;5011776;28;20058;-86
2021/12/18 13:32:53;;;;;;;2.70;0.30;;;19.00;56.10;;;;;;5012852;28;20057;-84
2021/12/18 13:35:19;;;;;;;3.97;0.47;;;19.10;56.10;;;;;;5029302;28;20053;-83
2021/12/18 13:38:03;;;;;;;2.20;0.40;;;19.00;55.90;;;;;;5011438;28;20060;-81
2021/12/18 13:40:31;;;;;;;2.45;0.40;;;19.10;55.90;;;;;;5011558;28;20064;-83